sensor_id;sensor_type;location;lat;lon;timestamp;temperature;humidity
54431;DHT22;40342;52.998;5.862;2023-02-28T00:00:31;4.20;99.90
54431;DHT22;40342;52.998;5.862;2023-02-28T00:02:57;4.20;99.90
54431;DHT22;40342;52.998;5.862;2023-02-28T00:05:23;4.20;99.90
54431;DHT22;40342;52.998;5.862;2023-02-28T00:07:49;4.20;99.90
54431;DHT22;40342;52.998;5.862;2023-02-28T00:10:16;4.20;99.90
54431;DHT22;40342;52.998;5.862;2023-02-28T00:12:49;4.20;99.90
54431;DHT22;40342;52.998;5.862;2023-02-28T00:15:15;4.20;99.90
54431;DHT22;40342;52.998;5.862;2023-02-28T00:17:41;4.20;99.90
54431;DHT22;40342;52.998;5.862;2023-02-28T00:20:07;4.20;99.90
54431;DHT22;40342;52.998;5.862;2023-02-28T00:22:47;4.20;99.90
54431;DHT22;40342;52.998;5.862;2023-02-28T00:25:14;4.20;99.90
54431;DHT22;40342;52.998;5.862;2023-02-28T00:27:40;4.20;99.90
54431;DHT22;40342;52.998;5.862;2023-02-28T00:30:06;4.20;99.90
54431;DHT22;40342;52.998;5.862;2023-02-28T00:32:32;4.20;99.90
54431;DHT22;40342;52.998;5.862;2023-02-28T00:34:59;4.10;99.90
54431;DHT22;40342;52.998;5.862;2023-02-28T00:37:25;4.10;99.90
54431;DHT22;40342;52.998;5.862;2023-02-28T00:39:51;4.10;99.90
54431;DHT22;40342;52.998;5.862;2023-02-28T00:42:17;4.10;99.90
54431;DHT22;40342;52.998;5.862;2023-02-28T00:44:42;4.10;99.90
54431;DHT22;40342;52.998;5.862;2023-02-28T00:47:08;4.10;99.90
54431;DHT22;40342;52.998;5.862;2023-02-28T00:49:33;4.10;99.90
54431;DHT22;40342;52.998;5.862;2023-02-28T00:51:58;4.10;99.90
54431;DHT22;40342;52.998;5.862;2023-02-28T00:54:24;4.10;99.90
54431;DHT22;40342;52.998;5.862;2023-02-28T00:56:49;4.10;99.90
54431;DHT22;40342;52.998;5.862;2023-02-28T00:59:16;4.10;99.90
54431;DHT22;40342;52.998;5.862;2023-02-28T01:01:42;4.10;99.90
54431;DHT22;40342;52.998;5.862;2023-02-28T01:04:07;4.10;99.90
54431;DHT22;40342;52.998;5.862;2023-02-28T01:06:33;4.10;99.90
54431;DHT22;40342;52.998;5.862;2023-02-28T01:08:59;4.10;99.90
54431;DHT22;40342;52.998;5.862;2023-02-28T01:11:24;4.10;99.90
54431;DHT22;40342;52.998;5.862;2023-02-28T01:13:50;4.10;99.90
54431;DHT22;40342;52.998;5.862;2023-02-28T01:16:15;4.10;99.90
54431;DHT22;40342;52.998;5.862;2023-02-28T01:18:41;4.10;99.90
54431;DHT22;40342;52.998;5.862;2023-02-28T01:21:08;4.10;99.90
54431;DHT22;40342;52.998;5.862;2023-02-28T01:23:34;4.10;99.90
54431;DHT22;40342;52.998;5.862;2023-02-28T01:26:07;4.10;99.90
54431;DHT22;40342;52.998;5.862;2023-02-28T01:28:33;4.00;99.90
54431;DHT22;40342;52.998;5.862;2023-02-28T01:30:59;4.00;99.90
54431;DHT22;40342;52.998;5.862;2023-02-28T01:33:24;4.00;99.90
54431;DHT22;40342;52.998;5.862;2023-02-28T01:35:57;3.90;99.90
54431;DHT22;40342;52.998;5.862;2023-02-28T01:38:22;3.90;99.90
54431;DHT22;40342;52.998;5.862;2023-02-28T01:40:48;3.90;99.90
54431;DHT22;40342;52.998;5.862;2023-02-28T01:43:21;3.90;99.90
54431;DHT22;40342;52.998;5.862;2023-02-28T01:45:46;3.90;99.90
54431;DHT22;40342;52.998;5.862;2023-02-28T01:48:12;3.90;99.90
54431;DHT22;40342;52.998;5.862;2023-02-28T01:50:39;3.90;99.90
54431;DHT22;40342;52.998;5.862;2023-02-28T01:53:06;4.00;99.90
54431;DHT22;40342;52.998;5.862;2023-02-28T01:55:33;3.90;99.90
54431;DHT22;40342;52.998;5.862;2023-02-28T01:58:00;3.90;99.90
54431;DHT22;40342;52.998;5.862;2023-02-28T02:00:27;4.00;99.90
54431;DHT22;40342;52.998;5.862;2023-02-28T02:02:54;4.00;99.90
54431;DHT22;40342;52.998;5.862;2023-02-28T02:05:25;4.00;99.90
54431;DHT22;40342;52.998;5.862;2023-02-28T02:07:52;4.00;99.90
54431;DHT22;40342;52.998;5.862;2023-02-28T02:10:20;3.90;99.90
54431;DHT22;40342;52.998;5.862;2023-02-28T02:13:05;4.00;99.90
54431;DHT22;40342;52.998;5.862;2023-02-28T02:15:52;4.00;99.90
54431;DHT22;40342;52.998;5.862;2023-02-28T02:25:58;4.00;99.90
54431;DHT22;40342;52.998;5.862;2023-02-28T02:31:23;4.00;99.90
54431;DHT22;40342;52.998;5.862;2023-02-28T02:36:26;4.00;99.90
54431;DHT22;40342;52.998;5.862;2023-02-28T02:38:59;4.00;99.90
54431;DHT22;40342;52.998;5.862;2023-02-28T02:41:28;3.90;99.90
54431;DHT22;40342;52.998;5.862;2023-02-28T02:44:00;4.00;99.90
54431;DHT22;40342;52.998;5.862;2023-02-28T02:46:28;4.00;99.90
54431;DHT22;40342;52.998;5.862;2023-02-28T02:48:55;4.00;99.90
54431;DHT22;40342;52.998;5.862;2023-02-28T02:51:21;3.90;99.90
54431;DHT22;40342;52.998;5.862;2023-02-28T02:54:31;3.90;99.90
54431;DHT22;40342;52.998;5.862;2023-02-28T02:56:36;3.90;99.90
54431;DHT22;40342;52.998;5.862;2023-02-28T02:59:06;4.00;99.90
54431;DHT22;40342;52.998;5.862;2023-02-28T03:01:33;4.00;99.90
54431;DHT22;40342;52.998;5.862;2023-02-28T03:04:04;4.00;99.90
54431;DHT22;40342;52.998;5.862;2023-02-28T03:06:31;4.00;99.90
54431;DHT22;40342;52.998;5.862;2023-02-28T03:08:56;4.00;99.90
54431;DHT22;40342;52.998;5.862;2023-02-28T03:11:22;4.00;99.90
54431;DHT22;40342;52.998;5.862;2023-02-28T03:16:56;4.00;99.90
54431;DHT22;40342;52.998;5.862;2023-02-28T03:19:38;4.00;99.90
54431;DHT22;40342;52.998;5.862;2023-02-28T03:24:56;4.00;99.90
54431;DHT22;40342;52.998;5.862;2023-02-28T03:27:37;4.00;99.90
54431;DHT22;40342;52.998;5.862;2023-02-28T03:30:26;4.00;99.90
54431;DHT22;40342;52.998;5.862;2023-02-28T03:32:55;4.00;99.90
54431;DHT22;40342;52.998;5.862;2023-02-28T03:35:23;4.00;99.90
54431;DHT22;40342;52.998;5.862;2023-02-28T03:37:50;4.00;99.90
54431;DHT22;40342;52.998;5.862;2023-02-28T03:40:19;4.00;99.90
54431;DHT22;40342;52.998;5.862;2023-02-28T03:42:47;4.00;99.90
54431;DHT22;40342;52.998;5.862;2023-02-28T03:45:14;4.00;99.90
54431;DHT22;40342;52.998;5.862;2023-02-28T03:50:41;4.00;99.90
54431;DHT22;40342;52.998;5.862;2023-02-28T03:53:15;4.00;99.90
54431;DHT22;40342;52.998;5.862;2023-02-28T03:55:42;4.00;99.90
54431;DHT22;40342;52.998;5.862;2023-02-28T03:58:24;4.00;99.90
54431;DHT22;40342;52.998;5.862;2023-02-28T04:01:01;4.00;99.90
54431;DHT22;40342;52.998;5.862;2023-02-28T04:03:34;4.00;99.90
54431;DHT22;40342;52.998;5.862;2023-02-28T04:05:59;4.00;99.90
54431;DHT22;40342;52.998;5.862;2023-02-28T04:08:25;4.00;99.90
54431;DHT22;40342;52.998;5.862;2023-02-28T04:10:56;4.10;99.90
54431;DHT22;40342;52.998;5.862;2023-02-28T04:13:23;4.00;99.90
54431;DHT22;40342;52.998;5.862;2023-02-28T04:15:48;4.00;99.90
54431;DHT22;40342;52.998;5.862;2023-02-28T04:18:14;4.00;99.90
54431;DHT22;40342;52.998;5.862;2023-02-28T04:20:39;4.00;99.90
54431;DHT22;40342;52.998;5.862;2023-02-28T04:23:04;4.00;99.90
54431;DHT22;40342;52.998;5.862;2023-02-28T04:25:30;4.00;99.90
54431;DHT22;40342;52.998;5.862;2023-02-28T04:27:55;4.00;99.90
54431;DHT22;40342;52.998;5.862;2023-02-28T04:30:21;4.00;99.90
54431;DHT22;40342;52.998;5.862;2023-02-28T04:32:46;4.00;99.90
54431;DHT22;40342;52.998;5.862;2023-02-28T04:35:12;4.00;99.90
54431;DHT22;40342;52.998;5.862;2023-02-28T04:37:37;4.10;99.90
54431;DHT22;40342;52.998;5.862;2023-02-28T04:40:03;4.10;99.90
54431;DHT22;40342;52.998;5.862;2023-02-28T04:42:28;4.10;99.90
54431;DHT22;40342;52.998;5.862;2023-02-28T04:45:03;4.10;99.90
54431;DHT22;40342;52.998;5.862;2023-02-28T04:47:29;4.10;99.90
54431;DHT22;40342;52.998;5.862;2023-02-28T04:49:54;4.10;99.90
54431;DHT22;40342;52.998;5.862;2023-02-28T04:52:20;4.00;99.90
54431;DHT22;40342;52.998;5.862;2023-02-28T04:54:45;4.10;99.90
54431;DHT22;40342;52.998;5.862;2023-02-28T04:57:11;4.10;99.90
54431;DHT22;40342;52.998;5.862;2023-02-28T04:59:36;4.10;99.90
54431;DHT22;40342;52.998;5.862;2023-02-28T05:02:03;4.00;99.90
54431;DHT22;40342;52.998;5.862;2023-02-28T05:04:32;4.00;99.90
54431;DHT22;40342;52.998;5.862;2023-02-28T05:06:59;3.90;99.90
54431;DHT22;40342;52.998;5.862;2023-02-28T05:09:25;3.90;99.90
54431;DHT22;40342;52.998;5.862;2023-02-28T05:11:50;3.80;99.90
54431;DHT22;40342;52.998;5.862;2023-02-28T05:14:16;3.70;99.90
54431;DHT22;40342;52.998;5.862;2023-02-28T05:16:41;3.70;99.90
54431;DHT22;40342;52.998;5.862;2023-02-28T05:19:07;3.60;99.90
54431;DHT22;40342;52.998;5.862;2023-02-28T05:21:36;3.50;99.90
54431;DHT22;40342;52.998;5.862;2023-02-28T05:24:04;3.50;99.90
54431;DHT22;40342;52.998;5.862;2023-02-28T05:26:30;3.50;99.90
54431;DHT22;40342;52.998;5.862;2023-02-28T05:28:55;3.40;99.90
54431;DHT22;40342;52.998;5.862;2023-02-28T05:31:21;3.40;99.90
54431;DHT22;40342;52.998;5.862;2023-02-28T05:33:46;3.40;99.90
54431;DHT22;40342;52.998;5.862;2023-02-28T05:36:12;3.40;99.90
54431;DHT22;40342;52.998;5.862;2023-02-28T05:38:37;3.30;99.90
54431;DHT22;40342;52.998;5.862;2023-02-28T05:41:06;3.20;99.90
54431;DHT22;40342;52.998;5.862;2023-02-28T05:43:32;3.20;99.90
54431;DHT22;40342;52.998;5.862;2023-02-28T05:45:57;3.10;99.90
54431;DHT22;40342;52.998;5.862;2023-02-28T05:48:23;3.10;99.90
54431;DHT22;40342;52.998;5.862;2023-02-28T05:50:48;3.00;99.90
54431;DHT22;40342;52.998;5.862;2023-02-28T05:53:14;3.00;99.90
54431;DHT22;40342;52.998;5.862;2023-02-28T05:55:39;2.90;99.90
54431;DHT22;40342;52.998;5.862;2023-02-28T05:58:06;2.80;99.90
54431;DHT22;40342;52.998;5.862;2023-02-28T06:00:31;2.80;99.90
54431;DHT22;40342;52.998;5.862;2023-02-28T06:02:57;2.80;99.90
54431;DHT22;40342;52.998;5.862;2023-02-28T06:05:26;2.70;99.90
54431;DHT22;40342;52.998;5.862;2023-02-28T06:07:52;2.70;99.90
54431;DHT22;40342;52.998;5.862;2023-02-28T06:10:17;2.70;99.90
54431;DHT22;40342;52.998;5.862;2023-02-28T06:12:43;2.70;99.90
54431;DHT22;40342;52.998;5.862;2023-02-28T06:15:12;2.60;99.90
54431;DHT22;40342;52.998;5.862;2023-02-28T06:17:37;2.60;99.90
54431;DHT22;40342;52.998;5.862;2023-02-28T06:20:03;2.50;99.90
54431;DHT22;40342;52.998;5.862;2023-02-28T06:22:28;2.50;99.90
54431;DHT22;40342;52.998;5.862;2023-02-28T06:24:54;2.50;99.90
54431;DHT22;40342;52.998;5.862;2023-02-28T06:27:20;2.50;99.90
54431;DHT22;40342;52.998;5.862;2023-02-28T06:29:45;2.50;99.90
54431;DHT22;40342;52.998;5.862;2023-02-28T06:32:11;2.40;99.90
54431;DHT22;40342;52.998;5.862;2023-02-28T06:34:36;2.40;99.90
54431;DHT22;40342;52.998;5.862;2023-02-28T06:37:02;2.40;99.90
54431;DHT22;40342;52.998;5.862;2023-02-28T06:39:28;2.40;99.90
54431;DHT22;40342;52.998;5.862;2023-02-28T06:41:54;2.40;99.90
54431;DHT22;40342;52.998;5.862;2023-02-28T06:44:19;2.40;99.90
54431;DHT22;40342;52.998;5.862;2023-02-28T06:46:45;2.40;99.90
54431;DHT22;40342;52.998;5.862;2023-02-28T06:49:11;2.40;99.90
54431;DHT22;40342;52.998;5.862;2023-02-28T06:51:37;2.30;99.90
54431;DHT22;40342;52.998;5.862;2023-02-28T06:54:03;2.30;99.90
54431;DHT22;40342;52.998;5.862;2023-02-28T06:56:29;2.30;99.90
54431;DHT22;40342;52.998;5.862;2023-02-28T06:58:54;2.30;99.90
54431;DHT22;40342;52.998;5.862;2023-02-28T07:01:20;2.30;99.90
54431;DHT22;40342;52.998;5.862;2023-02-28T07:03:48;2.30;99.90
54431;DHT22;40342;52.998;5.862;2023-02-28T07:06:20;2.30;99.90
54431;DHT22;40342;52.998;5.862;2023-02-28T07:08:48;2.30;99.90
54431;DHT22;40342;52.998;5.862;2023-02-28T07:11:14;2.30;99.90
54431;DHT22;40342;52.998;5.862;2023-02-28T07:13:39;2.30;99.90
54431;DHT22;40342;52.998;5.862;2023-02-28T07:16:05;2.30;99.90
54431;DHT22;40342;52.998;5.862;2023-02-28T07:18:31;2.30;99.90
54431;DHT22;40342;52.998;5.862;2023-02-28T07:20:57;2.20;99.90
54431;DHT22;40342;52.998;5.862;2023-02-28T07:23:23;2.30;99.90
54431;DHT22;40342;52.998;5.862;2023-02-28T07:25:49;2.30;99.90
54431;DHT22;40342;52.998;5.862;2023-02-28T07:28:15;2.30;99.90
54431;DHT22;40342;52.998;5.862;2023-02-28T07:30:40;2.30;99.90
54431;DHT22;40342;52.998;5.862;2023-02-28T07:33:06;2.30;99.90
54431;DHT22;40342;52.998;5.862;2023-02-28T07:35:31;2.30;99.90
54431;DHT22;40342;52.998;5.862;2023-02-28T07:37:57;2.30;99.90
54431;DHT22;40342;52.998;5.862;2023-02-28T07:40:23;2.30;99.90
54431;DHT22;40342;52.998;5.862;2023-02-28T07:42:48;2.30;99.90
54431;DHT22;40342;52.998;5.862;2023-02-28T07:45:13;2.30;99.90
54431;DHT22;40342;52.998;5.862;2023-02-28T07:47:39;2.30;99.90
54431;DHT22;40342;52.998;5.862;2023-02-28T07:50:06;2.30;99.90
54431;DHT22;40342;52.998;5.862;2023-02-28T07:52:32;2.20;99.90
54431;DHT22;40342;52.998;5.862;2023-02-28T07:54:58;2.20;99.90
54431;DHT22;40342;52.998;5.862;2023-02-28T07:57:23;2.20;99.90
54431;DHT22;40342;52.998;5.862;2023-02-28T07:59:49;2.20;99.90
54431;DHT22;40342;52.998;5.862;2023-02-28T08:02:15;2.20;99.90
54431;DHT22;40342;52.998;5.862;2023-02-28T08:04:40;2.30;99.90
54431;DHT22;40342;52.998;5.862;2023-02-28T08:07:06;2.30;99.90
54431;DHT22;40342;52.998;5.862;2023-02-28T08:09:32;2.30;99.90
54431;DHT22;40342;52.998;5.862;2023-02-28T08:11:57;2.30;99.90
54431;DHT22;40342;52.998;5.862;2023-02-28T08:14:23;2.30;99.90
54431;DHT22;40342;52.998;5.862;2023-02-28T08:16:48;2.30;99.90
54431;DHT22;40342;52.998;5.862;2023-02-28T08:19:14;2.30;99.90
54431;DHT22;40342;52.998;5.862;2023-02-28T08:21:39;2.30;99.90
54431;DHT22;40342;52.998;5.862;2023-02-28T08:24:05;2.40;99.90
54431;DHT22;40342;52.998;5.862;2023-02-28T08:26:30;2.40;99.90
54431;DHT22;40342;52.998;5.862;2023-02-28T08:28:56;2.40;99.90
54431;DHT22;40342;52.998;5.862;2023-02-28T08:31:21;2.40;99.90
54431;DHT22;40342;52.998;5.862;2023-02-28T08:33:48;2.40;99.90
54431;DHT22;40342;52.998;5.862;2023-02-28T08:36:16;2.40;99.90
54431;DHT22;40342;52.998;5.862;2023-02-28T08:38:41;2.40;99.90
54431;DHT22;40342;52.998;5.862;2023-02-28T08:41:08;2.40;99.90
54431;DHT22;40342;52.998;5.862;2023-02-28T08:43:34;2.40;99.90
54431;DHT22;40342;52.998;5.862;2023-02-28T08:46:00;2.40;99.90
54431;DHT22;40342;52.998;5.862;2023-02-28T08:48:26;2.40;99.90
54431;DHT22;40342;52.998;5.862;2023-02-28T08:50:58;2.40;99.90
54431;DHT22;40342;52.998;5.862;2023-02-28T08:53:24;2.50;99.90
54431;DHT22;40342;52.998;5.862;2023-02-28T08:55:59;2.50;99.90
54431;DHT22;40342;52.998;5.862;2023-02-28T08:58:25;2.50;99.90
54431;DHT22;40342;52.998;5.862;2023-02-28T09:00:51;2.50;99.90
54431;DHT22;40342;52.998;5.862;2023-02-28T09:03:16;2.50;99.90
54431;DHT22;40342;52.998;5.862;2023-02-28T09:05:51;2.60;99.90
54431;DHT22;40342;52.998;5.862;2023-02-28T09:08:17;2.70;99.90
54431;DHT22;40342;52.998;5.862;2023-02-28T09:10:42;2.70;99.90
54431;DHT22;40342;52.998;5.862;2023-02-28T09:13:07;2.80;99.90
54431;DHT22;40342;52.998;5.862;2023-02-28T09:15:33;2.90;99.90
54431;DHT22;40342;52.998;5.862;2023-02-28T09:17:58;3.00;99.90
54431;DHT22;40342;52.998;5.862;2023-02-28T09:20:24;3.00;99.90
54431;DHT22;40342;52.998;5.862;2023-02-28T09:22:49;3.10;99.90
54431;DHT22;40342;52.998;5.862;2023-02-28T09:25:15;3.10;99.90
54431;DHT22;40342;52.998;5.862;2023-02-28T09:27:40;3.20;99.90
54431;DHT22;40342;52.998;5.862;2023-02-28T09:30:06;3.20;99.90
54431;DHT22;40342;52.998;5.862;2023-02-28T09:32:32;3.20;99.90
54431;DHT22;40342;52.998;5.862;2023-02-28T09:34:57;3.20;99.90
54431;DHT22;40342;52.998;5.862;2023-02-28T09:37:23;3.20;99.90
54431;DHT22;40342;52.998;5.862;2023-02-28T09:39:48;3.30;99.90
54431;DHT22;40342;52.998;5.862;2023-02-28T09:42:18;3.40;99.90
54431;DHT22;40342;52.998;5.862;2023-02-28T09:44:46;3.40;99.90
54431;DHT22;40342;52.998;5.862;2023-02-28T09:47:25;3.50;99.90
54431;DHT22;40342;52.998;5.862;2023-02-28T09:49:52;3.60;99.90
54431;DHT22;40342;52.998;5.862;2023-02-28T09:52:21;3.60;99.90
54431;DHT22;40342;52.998;5.862;2023-02-28T09:54:49;3.70;99.90
54431;DHT22;40342;52.998;5.862;2023-02-28T09:59:52;3.80;99.90
54431;DHT22;40342;52.998;5.862;2023-02-28T10:05:08;3.90;99.90
54431;DHT22;40342;52.998;5.862;2023-02-28T10:10:03;4.20;99.90
54431;DHT22;40342;52.998;5.862;2023-02-28T10:12:29;4.40;99.90
54431;DHT22;40342;52.998;5.862;2023-02-28T10:14:57;4.60;99.90
54431;DHT22;40342;52.998;5.862;2023-02-28T10:17:25;5.00;99.90
54431;DHT22;40342;52.998;5.862;2023-02-28T10:25:21;5.60;99.90
54431;DHT22;40342;52.998;5.862;2023-02-28T10:27:48;5.80;99.90
54431;DHT22;40342;52.998;5.862;2023-02-28T10:30:14;5.90;99.90
54431;DHT22;40342;52.998;5.862;2023-02-28T10:32:41;6.00;99.90
54431;DHT22;40342;52.998;5.862;2023-02-28T10:35:17;6.20;99.90
54431;DHT22;40342;52.998;5.862;2023-02-28T10:37:48;6.40;99.90
54431;DHT22;40342;52.998;5.862;2023-02-28T10:42:42;6.60;99.90
54431;DHT22;40342;52.998;5.862;2023-02-28T10:45:19;6.80;99.90
54431;DHT22;40342;52.998;5.862;2023-02-28T10:47:54;6.90;99.90
54431;DHT22;40342;52.998;5.862;2023-02-28T10:50:37;6.90;99.90
54431;DHT22;40342;52.998;5.862;2023-02-28T10:55:35;6.90;99.90
54431;DHT22;40342;52.998;5.862;2023-02-28T10:58:01;6.90;99.90
54431;DHT22;40342;52.998;5.862;2023-02-28T11:00:31;7.00;99.90
54431;DHT22;40342;52.998;5.862;2023-02-28T11:02:57;7.00;99.90
54431;DHT22;40342;52.998;5.862;2023-02-28T11:05:30;7.00;99.90
54431;DHT22;40342;52.998;5.862;2023-02-28T11:08:06;7.00;99.90
54431;DHT22;40342;52.998;5.862;2023-02-28T11:10:36;7.10;99.90
54431;DHT22;40342;52.998;5.862;2023-02-28T11:13:02;7.10;99.90
54431;DHT22;40342;52.998;5.862;2023-02-28T11:15:29;7.20;99.90
54431;DHT22;40342;52.998;5.862;2023-02-28T11:17:57;7.20;99.90
54431;DHT22;40342;52.998;5.862;2023-02-28T11:20:24;7.30;99.90
54431;DHT22;40342;52.998;5.862;2023-02-28T11:22:51;7.30;99.90
54431;DHT22;40342;52.998;5.862;2023-02-28T11:25:21;7.40;99.90
54431;DHT22;40342;52.998;5.862;2023-02-28T11:27:50;7.40;99.90
54431;DHT22;40342;52.998;5.862;2023-02-28T11:32:53;7.40;99.90
54431;DHT22;40342;52.998;5.862;2023-02-28T11:35:38;7.30;99.90
54431;DHT22;40342;52.998;5.862;2023-02-28T11:38:05;7.40;99.90
54431;DHT22;40342;52.998;5.862;2023-02-28T11:40:39;7.50;99.90
54431;DHT22;40342;52.998;5.862;2023-02-28T11:43:30;7.50;99.90
54431;DHT22;40342;52.998;5.862;2023-02-28T11:48:25;7.70;99.90
54431;DHT22;40342;52.998;5.862;2023-02-28T11:53:44;7.90;99.90
54431;DHT22;40342;52.998;5.862;2023-02-28T11:56:27;8.00;99.90
54431;DHT22;40342;52.998;5.862;2023-02-28T12:01:37;8.10;99.90
54431;DHT22;40342;52.998;5.862;2023-02-28T12:06:34;8.20;99.90
54431;DHT22;40342;52.998;5.862;2023-02-28T12:09:04;8.30;99.90
54431;DHT22;40342;52.998;5.862;2023-02-28T12:14:19;8.40;99.90
54431;DHT22;40342;52.998;5.862;2023-02-28T12:17:12;8.50;99.90
54431;DHT22;40342;52.998;5.862;2023-02-28T12:19:45;8.50;99.90
54431;DHT22;40342;52.998;5.862;2023-02-28T12:27:58;8.70;99.90
54431;DHT22;40342;52.998;5.862;2023-02-28T12:30:32;8.70;99.90
54431;DHT22;40342;52.998;5.862;2023-02-28T12:33:01;8.80;99.90
54431;DHT22;40342;52.998;5.862;2023-02-28T12:35:37;8.90;99.90
54431;DHT22;40342;52.998;5.862;2023-02-28T12:38:05;9.00;99.90
54431;DHT22;40342;52.998;5.862;2023-02-28T12:43:19;8.70;99.90
54431;DHT22;40342;52.998;5.862;2023-02-28T12:45:47;8.50;99.90
54431;DHT22;40342;52.998;5.862;2023-02-28T12:49:00;8.30;99.90
54431;DHT22;40342;52.998;5.862;2023-02-28T12:50:59;8.20;99.90
54431;DHT22;40342;52.998;5.862;2023-02-28T12:53:28;8.00;99.90
54431;DHT22;40342;52.998;5.862;2023-02-28T12:55:58;7.90;99.90
54431;DHT22;40342;52.998;5.862;2023-02-28T12:58:37;7.90;99.90
54431;DHT22;40342;52.998;5.862;2023-02-28T13:06:10;8.40;99.90
54431;DHT22;40342;52.998;5.862;2023-02-28T13:11:29;8.90;99.90
54431;DHT22;40342;52.998;5.862;2023-02-28T13:13:58;9.10;99.90
54431;DHT22;40342;52.998;5.862;2023-02-28T13:16:24;9.30;99.90
54431;DHT22;40342;52.998;5.862;2023-02-28T13:18:50;9.50;99.90
54431;DHT22;40342;52.998;5.862;2023-02-28T13:21:23;9.70;99.90
54431;DHT22;40342;52.998;5.862;2023-02-28T13:26:21;9.90;99.90
54431;DHT22;40342;52.998;5.862;2023-02-28T13:31:22;10.30;99.90
54431;DHT22;40342;52.998;5.862;2023-02-28T13:38:51;10.70;99.90
54431;DHT22;40342;52.998;5.862;2023-02-28T13:44:06;10.90;99.90
54431;DHT22;40342;52.998;5.862;2023-02-28T13:46:33;10.90;99.90
54431;DHT22;40342;52.998;5.862;2023-02-28T14:00:02;10.40;99.90
54431;DHT22;40342;52.998;5.862;2023-02-28T14:07:47;10.20;99.90
54431;DHT22;40342;52.998;5.862;2023-02-28T14:10:20;10.20;99.90
54431;DHT22;40342;52.998;5.862;2023-02-28T14:20:44;10.50;99.90
54431;DHT22;40342;52.998;5.862;2023-02-28T14:26:02;10.50;99.90
54431;DHT22;40342;52.998;5.862;2023-02-28T14:31:22;10.70;99.90
54431;DHT22;40342;52.998;5.862;2023-02-28T14:36:21;10.90;99.90
54431;DHT22;40342;52.998;5.862;2023-02-28T14:41:14;11.10;99.90
54431;DHT22;40342;52.998;5.862;2023-02-28T14:43:47;11.00;99.90
54431;DHT22;40342;52.998;5.862;2023-02-28T14:46:13;10.80;99.90
54431;DHT22;40342;52.998;5.862;2023-02-28T14:48:39;10.70;99.90
54431;DHT22;40342;52.998;5.862;2023-02-28T14:51:04;10.70;99.90
54431;DHT22;40342;52.998;5.862;2023-02-28T14:53:34;10.60;99.90
54431;DHT22;40342;52.998;5.862;2023-02-28T14:56:00;10.40;99.90
54431;DHT22;40342;52.998;5.862;2023-02-28T14:58:29;10.30;99.90
54431;DHT22;40342;52.998;5.862;2023-02-28T15:00:57;10.20;99.90
54431;DHT22;40342;52.998;5.862;2023-02-28T15:05:58;10.10;99.90
54431;DHT22;40342;52.998;5.862;2023-02-28T15:08:24;10.10;99.90
54431;DHT22;40342;52.998;5.862;2023-02-28T15:10:57;10.20;99.90
54431;DHT22;40342;52.998;5.862;2023-02-28T15:13:23;10.40;99.90
54431;DHT22;40342;52.998;5.862;2023-02-28T15:15:52;10.50;99.90
54431;DHT22;40342;52.998;5.862;2023-02-28T15:20:45;10.60;99.90
54431;DHT22;40342;52.998;5.862;2023-02-28T15:23:11;10.70;99.90
54431;DHT22;40342;52.998;5.862;2023-02-28T15:25:37;10.80;99.90
54431;DHT22;40342;52.998;5.862;2023-02-28T15:28:03;10.80;99.90
54431;DHT22;40342;52.998;5.862;2023-02-28T15:30:29;10.80;99.90
54431;DHT22;40342;52.998;5.862;2023-02-28T15:35:33;10.90;99.90
54431;DHT22;40342;52.998;5.862;2023-02-28T15:38:03;10.90;99.90
54431;DHT22;40342;52.998;5.862;2023-02-28T15:43:00;10.90;99.90
54431;DHT22;40342;52.998;5.862;2023-02-28T15:45:28;10.90;99.90
54431;DHT22;40342;52.998;5.862;2023-02-28T15:47:55;10.80;99.90
54431;DHT22;40342;52.998;5.862;2023-02-28T15:50:21;10.80;99.90
54431;DHT22;40342;52.998;5.862;2023-02-28T15:52:47;10.80;99.90
54431;DHT22;40342;52.998;5.862;2023-02-28T15:55:22;10.80;99.90
54431;DHT22;40342;52.998;5.862;2023-02-28T15:57:52;10.80;99.90
54431;DHT22;40342;52.998;5.862;2023-02-28T16:00:20;10.70;99.90
54431;DHT22;40342;52.998;5.862;2023-02-28T16:02:45;10.70;99.90
54431;DHT22;40342;52.998;5.862;2023-02-28T16:07:40;10.70;99.90
54431;DHT22;40342;52.998;5.862;2023-02-28T16:10:07;10.60;99.90
54431;DHT22;40342;52.998;5.862;2023-02-28T16:12:33;10.50;99.90
54431;DHT22;40342;52.998;5.862;2023-02-28T16:15:00;10.50;99.90
54431;DHT22;40342;52.998;5.862;2023-02-28T16:17:29;10.50;99.90
54431;DHT22;40342;52.998;5.862;2023-02-28T16:19:55;10.50;99.90
54431;DHT22;40342;52.998;5.862;2023-02-28T16:22:21;10.50;99.90
54431;DHT22;40342;52.998;5.862;2023-02-28T16:24:47;10.60;99.90
54431;DHT22;40342;52.998;5.862;2023-02-28T16:27:31;10.90;99.90
54431;DHT22;40342;52.998;5.862;2023-02-28T16:29:57;11.30;99.90
54431;DHT22;40342;52.998;5.862;2023-02-28T16:32:23;11.80;99.90
54431;DHT22;40342;52.998;5.862;2023-02-28T16:34:48;12.10;99.90
54431;DHT22;40342;52.998;5.862;2023-02-28T16:37:15;12.30;99.90
54431;DHT22;40342;52.998;5.862;2023-02-28T16:39:41;12.50;99.90
54431;DHT22;40342;52.998;5.862;2023-02-28T16:42:09;12.50;99.90
54431;DHT22;40342;52.998;5.862;2023-02-28T16:44:35;12.50;99.90
54431;DHT22;40342;52.998;5.862;2023-02-28T16:47:01;12.50;99.90
54431;DHT22;40342;52.998;5.862;2023-02-28T16:49:27;12.50;99.90
54431;DHT22;40342;52.998;5.862;2023-02-28T16:51:52;12.40;99.90
54431;DHT22;40342;52.998;5.862;2023-02-28T16:54:18;12.30;99.90
54431;DHT22;40342;52.998;5.862;2023-02-28T16:56:44;12.20;99.90
54431;DHT22;40342;52.998;5.862;2023-02-28T16:59:10;12.00;99.90
54431;DHT22;40342;52.998;5.862;2023-02-28T17:01:36;11.80;99.90
54431;DHT22;40342;52.998;5.862;2023-02-28T17:04:02;11.50;99.90
54431;DHT22;40342;52.998;5.862;2023-02-28T17:06:28;11.10;99.90
54431;DHT22;40342;52.998;5.862;2023-02-28T17:08:54;10.80;99.90
54431;DHT22;40342;52.998;5.862;2023-02-28T17:11:20;10.60;99.90
54431;DHT22;40342;52.998;5.862;2023-02-28T17:13:45;10.30;99.90
54431;DHT22;40342;52.998;5.862;2023-02-28T17:18:46;9.80;99.90
54431;DHT22;40342;52.998;5.862;2023-02-28T17:21:15;9.50;99.90
54431;DHT22;40342;52.998;5.862;2023-02-28T17:23:41;9.30;99.90
54431;DHT22;40342;52.998;5.862;2023-02-28T17:26:08;9.00;99.90
54431;DHT22;40342;52.998;5.862;2023-02-28T17:28:35;8.80;99.90
54431;DHT22;40342;52.998;5.862;2023-02-28T17:31:00;8.70;99.90
54431;DHT22;40342;52.998;5.862;2023-02-28T17:33:26;8.50;99.90
54431;DHT22;40342;52.998;5.862;2023-02-28T17:35:51;8.40;99.90
54431;DHT22;40342;52.998;5.862;2023-02-28T17:38:19;8.20;99.90
54431;DHT22;40342;52.998;5.862;2023-02-28T17:40:45;8.10;99.90
54431;DHT22;40342;52.998;5.862;2023-02-28T17:43:10;8.00;99.90
54431;DHT22;40342;52.998;5.862;2023-02-28T17:45:36;7.80;99.90
54431;DHT22;40342;52.998;5.862;2023-02-28T17:48:01;7.70;99.90
54431;DHT22;40342;52.998;5.862;2023-02-28T17:50:27;7.60;99.90
54431;DHT22;40342;52.998;5.862;2023-02-28T17:52:52;7.50;99.90
54431;DHT22;40342;52.998;5.862;2023-02-28T17:55:18;7.40;99.90
54431;DHT22;40342;52.998;5.862;2023-02-28T17:57:46;7.30;99.90
54431;DHT22;40342;52.998;5.862;2023-02-28T18:00:13;7.10;99.90